Time;durP1;ratioP1;P1;durP2;ratioP2;P2;SDS_P1;SDS_P2;PMS_P1;PMS_P2;Temp;Humidity;BMP_temperature;BMP_pressure;BME280_temperature;BME280_humidity;BME280_pressure;Samples;Min_cycle;Max_cycle;Signal;HPM_P1;HPM_P2
2022/06/04 00:02:05;;;;;;;7.30;6.57;;;21.60;1.00;;;;;;5050336;28;20210;-57
2022/06/04 00:04:31;;;;;;;7.03;6.37;;;21.50;1.00;;;;;;5048427;28;20278;-57
2022/06/04 00:06:57;;;;;;;6.97;6.37;;;21.40;1.00;;;;;;5048172;28;20207;-58
2022/06/04 00:09:31;;;;;;;7.03;6.40;;;21.60;1.00;;;;;;5047698;28;20510;-56
2022/06/04 00:17:26;;;;;;;7.83;7.20;;;21.50;1.00;;;;;;5050307;28;20484;-56
2022/06/04 00:19:51;;;;;;;7.80;6.53;;;21.40;1.00;;;;;;5052647;28;20454;-57
2022/06/04 00:22:17;;;;;;;7.83;7.20;;;21.40;1.00;;;;;;5046579;28;20451;-58
2022/06/04 00:24:44;;;;;;;6.97;6.30;;;21.40;1.00;;;;;;5057121;28;20564;-57
2022/06/04 00:27:21;;;;;;;7.00;6.50;;;21.40;1.00;;;;;;5050559;28;20443;-57
2022/06/04 00:29:47;;;;;;;7.53;6.93;;;21.60;1.00;;;;;;5047525;28;20480;-58
2022/06/04 00:32:13;;;;;;;8.07;7.33;;;21.50;1.00;;;;;;5048245;28;20464;-56
2022/06/04 00:34:39;;;;;;;8.07;7.27;;;21.50;1.00;;;;;;5057552;28;20445;-56
2022/06/04 00:37:04;;;;;;;9.00;8.17;;;21.40;1.00;;;;;;5043402;28;20851;-57
2022/06/04 00:39:30;;;;;;;7.67;7.07;;;21.30;1.00;;;;;;5048771;28;20691;-57
2022/06/04 00:42:14;;;;;;;7.73;7.00;;;21.30;1.00;;;;;;5048037;28;20194;-56
2022/06/04 00:44:48;;;;;;;8.43;7.63;;;21.20;1.00;;;;;;5046862;28;20262;-57
2022/06/04 00:47:36;;;;;;;6.47;6.07;;;21.20;1.00;;;;;;5046143;28;20490;-57
2022/06/04 00:50:05;;;;;;;8.17;7.37;;;20.90;1.00;;;;;;5054097;28;20447;-57
2022/06/04 00:52:32;;;;;;;7.23;6.63;;;20.70;1.00;;;;;;5044020;28;20446;-57
2022/06/04 00:54:59;;;;;;;7.70;7.10;;;20.60;1.00;;;;;;5051225;28;21065;-57
2022/06/04 00:57:39;;;;;;;7.77;7.10;;;20.50;1.00;;;;;;5050737;28;20466;-57
2022/06/04 01:00:13;;;;;;;8.70;7.27;;;20.50;1.00;;;;;;5055468;28;20801;-57
2022/06/04 01:03:14;;;;;;;7.37;6.80;;;20.40;1.00;;;;;;5045982;28;20455;-57
2022/06/04 01:06:08;;;;;;;8.43;7.73;;;20.30;1.00;;;;;;5056048;28;20453;-56
2022/06/04 01:08:52;;;;;;;8.63;7.67;;;20.10;1.00;;;;;;5045579;28;20538;-55
2022/06/04 01:12:11;;;;;;;8.80;7.90;;;20.10;1.00;;;;;;5046109;28;20569;-56
2022/06/04 01:14:43;;;;;;;8.60;7.87;;;20.10;1.00;;;;;;5045353;28;20446;-57
2022/06/04 01:17:21;;;;;;;7.93;7.23;;;20.10;1.00;;;;;;5050072;28;20478;-56
2022/06/04 01:19:58;;;;;;;7.40;6.67;;;20.20;1.00;;;;;;5053520;28;21033;-57
2022/06/04 01:23:02;;;;;;;8.17;7.37;;;20.10;1.00;;;;;;5047073;28;20461;-56
2022/06/04 01:25:46;;;;;;;8.33;7.63;;;20.10;1.00;;;;;;5041382;28;20453;-57
2022/06/04 01:28:16;;;;;;;9.03;8.23;;;20.30;1.00;;;;;;5048154;28;20457;-57
2022/06/04 01:30:47;;;;;;;8.67;8.03;;;20.40;1.00;;;;;;5051512;28;20499;-57
2022/06/04 01:33:25;;;;;;;8.73;8.13;;;20.50;1.00;;;;;;5042650;28;20451;-57
2022/06/04 01:35:55;;;;;;;8.63;8.03;;;20.50;1.00;;;;;;5047341;28;20480;-57
2022/06/04 01:38:32;;;;;;;8.13;7.53;;;20.40;1.00;;;;;;5045703;28;20496;-58
2022/06/04 01:41:04;;;;;;;8.40;7.60;;;20.30;1.00;;;;;;5048446;28;21055;-58
2022/06/04 01:43:50;;;;;;;9.00;8.20;;;20.40;1.00;;;;;;5047069;28;20434;-56
2022/06/04 01:46:25;;;;;;;9.53;8.73;;;20.20;1.00;;;;;;5040955;28;20466;-56
2022/06/04 01:48:56;;;;;;;9.30;8.60;;;20.30;1.00;;;;;;5047322;28;20454;-57
2022/06/04 01:51:25;;;;;;;8.20;7.60;;;20.30;1.00;;;;;;5048444;28;20449;-57
2022/06/04 01:53:55;;;;;;;8.20;7.60;;;20.20;1.00;;;;;;5057435;28;20442;-57
2022/06/04 01:56:29;;;;;;;8.20;7.60;;;20.10;1.00;;;;;;5047843;28;20880;-56
2022/06/04 01:59:05;;;;;;;9.03;8.33;;;20.10;1.00;;;;;;5050488;28;20443;-56
2022/06/04 02:01:33;;;;;;;9.13;8.33;;;20.00;1.00;;;;;;5048284;28;20438;-57
2022/06/04 02:04:10;;;;;;;9.33;8.43;;;20.00;1.00;;;;;;5056242;28;20448;-57
2022/06/04 02:06:41;;;;;;;9.23;8.40;;;20.00;1.00;;;;;;5049292;28;20935;-57
2022/06/04 02:09:14;;;;;;;10.00;9.20;;;20.10;1.00;;;;;;5044756;28;20454;-56
2022/06/04 02:11:47;;;;;;;9.07;8.37;;;20.20;1.00;;;;;;5045242;28;20473;-57
2022/06/04 02:14:13;;;;;;;9.60;8.90;;;20.10;1.00;;;;;;5040828;28;20455;-57
2022/06/04 02:16:47;;;;;;;10.37;9.50;;;20.20;1.00;;;;;;5040470;28;20982;-56
2022/06/04 02:19:13;;;;;;;9.83;9.03;;;20.20;1.00;;;;;;5041671;28;20951;-57
2022/06/04 02:21:39;;;;;;;10.20;9.40;;;20.20;1.00;;;;;;5051703;28;20472;-57
2022/06/04 02:24:06;;;;;;;10.20;9.50;;;20.20;1.00;;;;;;5049464;28;20208;-56
2022/06/04 02:26:32;;;;;;;10.07;9.27;;;20.10;1.00;;;;;;5045399;28;20200;-55
2022/06/04 02:28:59;;;;;;;10.07;9.03;;;20.00;1.00;;;;;;5052198;28;20479;-57
2022/06/04 02:31:47;;;;;;;10.23;9.43;;;19.90;1.00;;;;;;5056027;28;20446;-56
2022/06/04 02:34:22;;;;;;;10.10;9.30;;;20.00;1.00;;;;;;5046264;28;20450;-57
2022/06/04 02:37:03;;;;;;;10.63;9.63;;;19.80;1.00;;;;;;5053330;28;20530;-56
2022/06/04 02:39:49;;;;;;;10.70;9.90;;;19.60;1.00;;;;;;5048061;28;20438;-57
2022/06/04 02:42:56;;;;;;;10.40;9.37;;;19.60;1.00;;;;;;5042380;28;20457;-57
2022/06/04 02:45:39;;;;;;;10.30;9.40;;;19.40;1.00;;;;;;5051883;28;20442;-57
2022/06/04 02:48:15;;;;;;;10.60;9.87;;;19.40;1.00;;;;;;5034921;28;20487;-57
2022/06/04 02:50:47;;;;;;;11.70;10.77;;;19.50;1.00;;;;;;5045510;28;21016;-57
2022/06/04 02:53:15;;;;;;;10.77;9.87;;;19.40;1.00;;;;;;5046312;28;20446;-56
2022/06/04 02:55:47;;;;;;;11.50;10.57;;;19.40;1.00;;;;;;5047892;28;20446;-58
2022/06/04 02:58:18;;;;;;;11.60;10.50;;;19.40;1.00;;;;;;5052203;28;20512;-57
2022/06/04 03:00:46;;;;;;;11.27;10.27;;;19.40;1.00;;;;;;5048016;28;20442;-57
2022/06/04 03:03:13;;;;;;;11.33;10.33;;;19.40;1.00;;;;;;5054205;28;20442;-57
2022/06/04 03:05:53;;;;;;;10.80;10.00;;;19.40;1.00;;;;;;5045235;28;20442;-57
2022/06/04 03:08:20;;;;;;;10.80;10.00;;;19.40;1.00;;;;;;5041426;28;20503;-57
2022/06/04 03:10:46;;;;;;;10.53;9.73;;;19.40;1.00;;;;;;5047343;28;20472;-56
2022/06/04 03:13:11;;;;;;;11.23;10.33;;;19.60;1.00;;;;;;5050135;28;20438;-56
2022/06/04 03:15:37;;;;;;;12.03;10.90;;;19.60;1.00;;;;;;5043867;28;20176;-56
2022/06/04 03:18:03;;;;;;;11.83;11.00;;;19.70;1.00;;;;;;5044069;28;20179;-56
2022/06/04 03:20:28;;;;;;;12.40;11.40;;;19.80;1.00;;;;;;5047236;28;21824;-56
2022/06/04 03:22:54;;;;;;;11.83;10.93;;;19.70;1.00;;;;;;5044167;28;20180;-57
2022/06/04 03:25:20;;;;;;;13.80;12.50;;;19.70;1.00;;;;;;5049499;28;20691;-57
2022/06/04 03:27:47;;;;;;;13.13;12.10;;;19.70;1.00;;;;;;5041080;28;20196;-58
2022/06/04 03:30:13;;;;;;;12.70;11.70;;;19.70;1.00;;;;;;5034625;28;20535;-58
2022/06/04 03:32:39;;;;;;;12.60;11.60;;;19.80;1.00;;;;;;5038446;28;20884;-57
2022/06/04 03:35:06;;;;;;;12.60;11.60;;;19.80;1.00;;;;;;5048315;28;20548;-57
2022/06/04 03:37:32;;;;;;;13.03;12.03;;;19.80;1.00;;;;;;5050043;28;20235;-56
2022/06/04 03:39:58;;;;;;;12.10;11.00;;;19.80;1.00;;;;;;5050296;28;20442;-57
2022/06/04 03:42:23;;;;;;;11.87;10.77;;;19.70;1.00;;;;;;5054231;28;20466;-56
2022/06/04 03:44:49;;;;;;;11.90;11.00;;;19.70;1.00;;;;;;5053792;28;20460;-57
2022/06/04 03:47:16;;;;;;;11.40;10.50;;;19.60;1.00;;;;;;5053377;28;20285;-55
2022/06/04 03:49:43;;;;;;;11.97;11.00;;;19.60;1.00;;;;;;5047221;28;20185;-56
2022/06/04 03:52:11;;;;;;;14.07;12.90;;;19.70;1.00;;;;;;5049988;28;20442;-57
2022/06/04 03:54:52;;;;;;;12.90;11.80;;;19.80;1.00;;;;;;5050074;28;20446;-58
2022/06/04 04:00:06;;;;;;;12.53;11.33;;;19.70;1.00;;;;;;5050777;28;20504;-57
2022/06/04 04:02:33;;;;;;;13.37;12.27;;;19.70;1.00;;;;;;5050248;28;21080;-57
2022/06/04 04:04:59;;;;;;;13.33;12.23;;;19.80;1.00;;;;;;5045626;28;20450;-57
2022/06/04 04:07:24;;;;;;;14.97;13.67;;;19.90;1.00;;;;;;5052808;28;20829;-56
2022/06/04 04:09:50;;;;;;;14.47;13.27;;;19.90;1.00;;;;;;5048277;28;20457;-56
2022/06/04 04:12:16;;;;;;;13.33;12.27;;;19.90;1.00;;;;;;5064418;28;20263;-57
2022/06/04 04:14:42;;;;;;;13.77;12.67;;;19.90;1.00;;;;;;5050703;28;20199;-56
2022/06/04 04:17:09;;;;;;;13.60;12.40;;;19.90;1.00;;;;;;5053501;28;20215;-56
2022/06/04 04:19:35;;;;;;;13.80;12.60;;;19.90;1.00;;;;;;5047379;28;20246;-56
2022/06/04 04:22:01;;;;;;;14.67;13.57;;;19.90;1.00;;;;;;5049308;28;20796;-56
2022/06/04 04:24:26;;;;;;;14.63;13.47;;;19.90;1.00;;;;;;5054866;28;20458;-57
2022/06/04 04:26:53;;;;;;;15.13;13.73;;;19.90;1.00;;;;;;5048521;28;20606;-55
2022/06/04 04:29:18;;;;;;;15.63;14.33;;;19.90;1.00;;;;;;5047885;28;20204;-57
2022/06/04 04:31:44;;;;;;;15.60;14.00;;;20.00;1.00;;;;;;5058006;28;21208;-57
2022/06/04 04:34:09;;;;;;;15.60;14.40;;;20.00;1.00;;;;;;5043484;28;20220;-57
2022/06/04 04:36:35;;;;;;;15.10;14.00;;;20.00;1.00;;;;;;5042422;28;20208;-56
2022/06/04 04:39:00;;;;;;;15.73;14.40;;;20.00;1.00;;;;;;5053710;28;20186;-56
2022/06/04 04:41:26;;;;;;;16.17;14.87;;;20.10;1.00;;;;;;5049446;28;20188;-58
2022/06/04 04:43:52;;;;;;;14.60;13.50;;;20.10;1.00;;;;;;5050232;28;20199;-56
2022/06/04 04:46:19;;;;;;;16.37;15.07;;;20.10;1.00;;;;;;5045955;28;20322;-56
2022/06/04 04:48:46;;;;;;;16.63;15.23;;;20.20;1.00;;;;;;5047623;28;20450;-58
2022/06/04 04:51:19;;;;;;;15.50;14.20;;;20.30;1.00;;;;;;5047631;28;20454;-56
2022/06/04 04:53:47;;;;;;;15.83;14.53;;;20.30;1.00;;;;;;5047476;28;20488;-57
2022/06/04 04:56:17;;;;;;;15.37;14.17;;;20.30;1.00;;;;;;5054721;28;20469;-57
2022/06/04 04:58:43;;;;;;;16.53;15.07;;;20.20;1.00;;;;;;5050316;28;20545;-58
2022/06/04 05:01:16;;;;;;;16.70;15.30;;;20.00;1.00;;;;;;5048985;28;20461;-57
2022/06/04 05:03:44;;;;;;;15.40;14.20;;;20.00;1.00;;;;;;5050636;28;20449;-56
2022/06/04 05:06:12;;;;;;;15.67;14.47;;;20.10;1.00;;;;;;5049353;28;20438;-57
2022/06/04 05:08:37;;;;;;;14.53;13.43;;;20.10;1.00;;;;;;5051297;28;20485;-54
2022/06/04 05:11:09;;;;;;;16.67;14.97;;;20.10;1.00;;;;;;5046058;28;20961;-54
2022/06/04 05:13:35;;;;;;;15.80;14.50;;;19.90;1.00;;;;;;5047072;28;20185;-56
2022/06/04 05:16:01;;;;;;;14.63;13.53;;;19.80;1.00;;;;;;5042538;28;20573;-54
2022/06/04 05:18:27;;;;;;;14.57;13.37;;;;;;;;;;5045006;28;20438;-54
2022/06/04 05:20:52;;;;;;;15.90;14.60;;;18.80;1.00;;;;;;5047699;28;20188;-54
2022/06/04 05:23:18;;;;;;;17.07;15.60;;;19.90;1.00;;;;;;5043203;28;20533;-56
2022/06/04 05:25:44;;;;;;;16.93;15.73;;;20.00;1.00;;;;;;5047095;28;20212;-55
2022/06/04 05:28:10;;;;;;;15.30;14.10;;;20.10;1.00;;;;;;5047926;28;20194;-56
2022/06/04 05:30:36;;;;;;;15.33;14.20;;;20.50;1.00;;;;;;5045727;28;20185;-54
2022/06/04 05:33:02;;;;;;;16.40;15.00;;;20.40;1.00;;;;;;5046063;28;20212;-55
2022/06/04 05:35:27;;;;;;;16.20;14.90;;;20.50;1.00;;;;;;5055410;28;20520;-54
2022/06/04 05:37:53;;;;;;;15.80;14.53;;;20.70;1.00;;;;;;5049512;28;21955;-55
2022/06/04 05:40:19;;;;;;;17.13;15.83;;;20.80;1.00;;;;;;5047194;28;20685;-55
2022/06/04 05:42:44;;;;;;;16.17;14.57;;;20.90;1.00;;;;;;5048825;28;20187;-56
2022/06/04 05:45:10;;;;;;;15.50;14.20;;;21.00;1.00;;;;;;5050063;28;20187;-54
2022/06/04 05:47:35;;;;;;;14.20;13.20;;;21.20;1.00;;;;;;5048612;28;20700;-55
2022/06/04 05:50:01;;;;;;;15.43;14.13;;;21.20;1.00;;;;;;5048616;28;20196;-55
2022/06/04 05:52:27;;;;;;;17.10;15.80;;;21.10;1.00;;;;;;5049363;28;20227;-55
2022/06/04 05:54:52;;;;;;;17.40;15.90;;;21.00;1.00;;;;;;5048090;28;20227;-55
2022/06/04 05:57:18;;;;;;;16.30;15.00;;;21.00;1.00;;;;;;5050869;28;20234;-55
2022/06/04 05:59:43;;;;;;;17.17;15.87;;;21.10;1.00;;;;;;5049395;28;20190;-55
2022/06/04 06:02:10;;;;;;;18.17;16.67;;;21.10;1.00;;;;;;5049381;28;20180;-55
2022/06/04 06:04:36;;;;;;;18.83;17.20;;;20.80;1.00;;;;;;5045375;28;20176;-54
2022/06/04 06:07:02;;;;;;;16.60;15.30;;;20.60;1.00;;;;;;5049284;28;21048;-56
2022/06/04 06:09:28;;;;;;;18.33;16.83;;;20.70;1.00;;;;;;5049569;28;20196;-55
2022/06/04 06:11:55;;;;;;;18.60;17.10;;;20.80;1.00;;;;;;5049927;28;20188;-55
2022/06/04 06:14:21;;;;;;;18.60;16.90;;;20.90;1.00;;;;;;5045914;28;20451;-54
2022/06/04 06:16:49;;;;;;;18.07;16.43;;;21.00;1.00;;;;;;5048794;28;20507;-55
2022/06/04 06:19:16;;;;;;;17.50;16.10;;;21.10;1.00;;;;;;5048900;28;20832;-54
2022/06/04 06:21:43;;;;;;;16.90;15.40;;;21.20;1.00;;;;;;5047756;28;21522;-56
2022/06/04 06:24:10;;;;;;;18.13;16.33;;;21.10;1.00;;;;;;5050507;28;20914;-55
2022/06/04 06:27:08;;;;;;;17.33;15.80;;;20.90;1.00;;;;;;5045710;28;20547;-54
2022/06/04 06:29:33;;;;;;;16.00;14.70;;;20.80;1.00;;;;;;5039809;28;20522;-55
2022/06/04 06:32:00;;;;;;;14.70;13.37;;;20.80;1.00;;;;;;5046969;28;20457;-55
2022/06/04 06:34:26;;;;;;;16.50;15.20;;;21.00;1.00;;;;;;5045092;28;20275;-54
2022/06/04 06:36:51;;;;;;;14.30;13.20;;;21.10;1.00;;;;;;5049229;28;20627;-55
2022/06/04 06:39:18;;;;;;;14.67;13.33;;;21.20;1.00;;;;;;5045867;28;20760;-55
2022/06/04 06:41:44;;;;;;;14.77;13.57;;;21.20;1.00;;;;;;5046537;28;20200;-55
2022/06/04 06:44:11;;;;;;;14.07;12.97;;;21.10;1.00;;;;;;5048860;28;20478;-54
2022/06/04 06:46:46;;;;;;;15.00;13.80;;;21.10;1.00;;;;;;5044208;28;20220;-56
2022/06/04 06:49:38;;;;;;;15.17;13.87;;;21.10;1.00;;;;;;5048810;28;20453;-55
2022/06/04 06:52:04;;;;;;;14.83;13.73;;;21.10;1.00;;;;;;5045489;28;20458;-55
2022/06/04 06:54:34;;;;;;;14.27;13.07;;;21.20;1.00;;;;;;5055622;28;20446;-56
2022/06/04 06:57:01;;;;;;;14.80;13.60;;;21.30;1.00;;;;;;5058498;28;20478;-56
2022/06/04 06:59:27;;;;;;;15.37;13.97;;;21.40;1.00;;;;;;5047965;28;20458;-54
2022/06/04 07:01:55;;;;;;;14.00;12.90;;;21.40;1.00;;;;;;5055007;28;21074;-55
2022/06/04 07:04:21;;;;;;;13.80;12.67;;;21.20;1.00;;;;;;5054777;28;20467;-54
2022/06/04 07:06:51;;;;;;;13.90;12.80;;;21.20;1.00;;;;;;5053300;28;20859;-56
2022/06/04 07:09:23;;;;;;;14.53;13.47;;;21.20;1.00;;;;;;5054146;28;20478;-54
2022/06/04 07:11:49;;;;;;;13.67;12.57;;;21.20;1.00;;;;;;5054938;28;20440;-54
2022/06/04 07:14:15;;;;;;;13.00;11.90;;;21.20;1.00;;;;;;5053480;28;20500;-55
2022/06/04 07:16:42;;;;;;;14.20;13.00;;;21.20;1.00;;;;;;5056057;28;20462;-56
2022/06/04 07:19:10;;;;;;;14.53;13.43;;;21.10;1.00;;;;;;5055570;28;20438;-55
2022/06/04 07:21:36;;;;;;;13.10;12.00;;;21.10;1.00;;;;;;5052033;28;20562;-54
2022/06/04 07:24:02;;;;;;;13.10;12.00;;;21.20;1.00;;;;;;5056237;28;20454;-55
2022/06/04 07:26:28;;;;;;;13.17;12.17;;;21.20;1.00;;;;;;5051060;28;20615;-54
2022/06/04 07:28:53;;;;;;;12.50;11.50;;;21.20;1.00;;;;;;5054801;28;20215;-54
2022/06/04 07:31:19;;;;;;;12.43;11.33;;;21.40;1.00;;;;;;5053808;28;20466;-55
2022/06/04 07:33:47;;;;;;;12.23;11.03;;;21.30;1.00;;;;;;5053088;28;20278;-56
2022/06/04 07:36:17;;;;;;;12.37;11.37;;;21.40;1.00;;;;;;5053936;28;20665;-56
2022/06/04 07:38:44;;;;;;;12.33;11.43;;;21.50;1.00;;;;;;5053713;28;20462;-63
2022/06/04 07:41:42;;;;;;;11.80;10.80;;;21.60;1.00;;;;;;5045371;28;20450;-54
2022/06/04 07:44:09;;;;;;;12.60;11.60;;;21.70;1.00;;;;;;5054213;28;20438;-54
2022/06/04 07:46:35;;;;;;;13.50;12.30;;;21.70;1.00;;;;;;5054357;28;20477;-54
2022/06/04 07:49:03;;;;;;;11.73;10.73;;;21.60;1.00;;;;;;5054207;28;20446;-55
2022/06/04 07:51:30;;;;;;;11.63;10.70;;;21.50;1.00;;;;;;5051504;28;20180;-56
2022/06/04 07:53:56;;;;;;;11.50;10.70;;;21.50;1.00;;;;;;5055054;28;20971;-56
2022/06/04 07:56:23;;;;;;;12.07;10.97;;;21.70;1.00;;;;;;5055187;28;20477;-55
2022/06/04 07:58:49;;;;;;;11.93;10.97;;;21.60;1.00;;;;;;5056333;28;20442;-54
2022/06/04 08:01:17;;;;;;;12.03;11.03;;;21.60;1.00;;;;;;5054957;28;20531;-57
2022/06/04 08:03:44;;;;;;;11.60;10.60;;;21.60;1.00;;;;;;5049627;28;20978;-55
2022/06/04 08:06:11;;;;;;;11.83;10.83;;;21.70;1.00;;;;;;5054994;28;20458;-54
2022/06/04 08:08:37;;;;;;;10.33;9.53;;;21.70;1.00;;;;;;5057592;28;20446;-57
2022/06/04 08:13:51;;;;;;;11.30;10.50;;;21.90;1.00;;;;;;5053844;28;20472;-54
2022/06/04 08:16:17;;;;;;;11.53;10.67;;;21.90;1.00;;;;;;5060881;28;20460;-54
2022/06/04 08:18:43;;;;;;;10.57;9.60;;;21.90;1.00;;;;;;5057266;28;20195;-53
2022/06/04 08:21:09;;;;;;;12.97;11.63;;;22.10;1.00;;;;;;5061848;28;20461;-54
2022/06/04 08:23:35;;;;;;;12.27;11.37;;;22.10;1.00;;;;;;5067580;28;20192;-54
2022/06/04 08:26:01;;;;;;;11.30;10.23;;;22.30;1.00;;;;;;5064812;28;21064;-54
2022/06/04 08:28:27;;;;;;;11.13;10.10;;;22.30;1.00;;;;;;5070239;28;20442;-53
2022/06/04 08:31:02;;;;;;;10.10;9.40;;;22.30;1.00;;;;;;5052768;28;20207;-55
2022/06/04 08:33:29;;;;;;;10.70;9.60;;;22.20;1.00;;;;;;5056773;28;20356;-55
2022/06/04 08:35:55;;;;;;;10.80;9.90;;;22.40;1.00;;;;;;5052033;28;20960;-53
2022/06/04 08:38:21;;;;;;;10.63;9.73;;;22.50;1.00;;;;;;5057097;28;20633;-55
2022/06/04 08:40:56;;;;;;;11.60;10.67;;;22.70;1.00;;;;;;5059080;28;20296;-54
2022/06/04 08:43:33;;;;;;;10.60;9.70;;;22.90;1.00;;;;;;5058556;28;20183;-54
2022/06/04 08:46:00;;;;;;;11.70;10.67;;;23.10;1.00;;;;;;5067570;28;20442;-55
2022/06/04 08:48:34;;;;;;;11.40;10.30;;;23.20;1.00;;;;;;5058451;28;20824;-54
2022/06/04 08:50:59;;;;;;;10.73;9.93;;;23.40;1.00;;;;;;5062716;28;20837;-55
2022/06/04 08:53:28;;;;;;;12.30;11.10;;;23.50;1.00;;;;;;5058952;28;20454;-55
2022/06/04 08:58:59;;;;;;;11.60;10.70;;;23.90;1.00;;;;;;5056789;28;20772;-54
2022/06/04 09:01:42;;;;;;;11.17;10.37;;;24.10;1.00;;;;;;5051147;28;20958;-53
2022/06/04 09:04:28;;;;;;;11.80;11.00;;;24.20;1.00;;;;;;5066345;28;20433;-53
2022/06/04 09:06:54;;;;;;;12.77;11.77;;;24.10;1.00;;;;;;5050413;28;20493;-57
2022/06/04 09:09:28;;;;;;;12.40;11.40;;;24.30;1.00;;;;;;5051304;28;20474;-52
2022/06/04 09:12:07;;;;;;;11.20;10.30;;;24.50;1.00;;;;;;5051133;28;20211;-55
2022/06/04 09:14:43;;;;;;;12.47;11.60;;;25.00;1.00;;;;;;5047047;28;20462;-55
2022/06/04 09:17:43;;;;;;;12.03;11.23;;;25.20;1.00;;;;;;5051971;28;20470;-55
2022/06/04 09:20:32;;;;;;;12.50;11.60;;;25.00;1.00;;;;;;5052383;28;20442;-54
2022/06/04 09:23:06;;;;;;;12.13;11.03;;;24.70;1.00;;;;;;5049300;28;20442;-54
2022/06/04 09:25:58;;;;;;;11.50;10.70;;;25.00;1.00;;;;;;5051076;28;20893;-54
2022/06/04 09:28:56;;;;;;;12.60;11.70;;;25.20;1.00;;;;;;5062878;28;20450;-54
2022/06/04 09:31:27;;;;;;;11.00;10.20;;;24.80;1.00;;;;;;5060842;28;20450;-57
2022/06/04 09:34:00;;;;;;;11.30;10.53;;;24.90;1.00;;;;;;5051516;28;20434;-57
2022/06/04 09:36:29;;;;;;;11.17;10.37;;;24.70;1.00;;;;;;5054083;28;20466;-55
2022/06/04 09:39:02;;;;;;;11.30;10.50;;;24.70;1.00;;;;;;5056845;28;20804;-53
2022/06/04 09:41:30;;;;;;;9.80;9.10;;;24.60;1.00;;;;;;5051190;28;20453;-56
2022/06/04 09:44:15;;;;;;;10.50;9.80;;;24.80;1.00;;;;;;5063857;28;20453;-56
2022/06/04 09:46:43;;;;;;;11.03;10.20;;;24.80;1.00;;;;;;5050462;28;20547;-54
2022/06/04 09:49:24;;;;;;;10.30;9.60;;;24.90;1.00;;;;;;5060879;28;20431;-56
2022/06/04 09:51:49;;;;;;;9.87;9.00;;;25.50;1.00;;;;;;5056215;28;20440;-55
2022/06/04 09:54:35;;;;;;;9.40;8.57;;;26.60;1.00;;;;;;5050941;28;20444;-55
2022/06/04 09:57:03;;;;;;;10.63;9.87;;;;;;;;;;5050542;28;20216;-54
2022/06/04 09:59:32;;;;;;;10.97;10.20;;;27.10;1.00;;;;;;5054246;28;20430;-56
2022/06/04 10:01:57;;;;;;;10.17;9.47;;;27.70;1.00;;;;;;5062223;28;21439;-54
2022/06/04 10:04:34;;;;;;;9.70;9.00;;;28.00;1.00;;;;;;5062715;28;20442;-55
2022/06/04 10:07:11;;;;;;;9.00;8.30;;;27.70;1.00;;;;;;5050643;28;20237;-54
2022/06/04 10:09:58;;;;;;;9.13;8.43;;;27.30;1.00;;;;;;5050838;28;20446;-57
2022/06/04 10:15:30;;;;;;;9.10;8.20;;;26.30;1.00;;;;;;5050332;28;20509;-54
2022/06/04 10:18:21;;;;;;;8.43;7.27;;;25.90;1.00;;;;;;5070332;28;20838;-57
2022/06/04 10:20:59;;;;;;;9.00;8.23;;;26.50;1.00;;;;;;5064805;28;20528;-53
2022/06/04 10:23:26;;;;;;;9.00;8.40;;;26.60;1.00;;;;;;5070455;28;20433;-55
2022/06/04 10:26:01;;;;;;;8.23;7.73;;;26.40;1.00;;;;;;5070407;28;20416;-55
2022/06/04 10:28:51;;;;;;;7.60;7.00;;;26.60;1.00;;;;;;5052653;28;20434;-56
2022/06/04 10:31:48;;;;;;;7.60;7.00;;;27.20;1.00;;;;;;5050456;28;20466;-55
2022/06/04 10:34:55;;;;;;;9.70;7.43;;;27.70;1.00;;;;;;5045569;28;20494;-56
2022/06/04 10:37:52;;;;;;;8.40;7.60;;;27.40;1.00;;;;;;5046927;28;20466;-52
2022/06/04 10:40:35;;;;;;;7.63;7.03;;;28.00;1.00;;;;;;5042751;28;20428;-56
2022/06/04 10:43:22;;;;;;;7.80;7.30;;;28.80;1.00;;;;;;5070260;28;20434;-55
2022/06/04 10:46:30;;;;;;;8.30;7.63;;;28.20;1.00;;;;;;5060084;28;20453;-54
2022/06/04 10:49:35;;;;;;;7.93;7.33;;;27.20;1.00;;;;;;5050103;28;20972;-53
2022/06/04 10:52:25;;;;;;;9.10;8.40;;;26.70;1.00;;;;;;5039811;28;20581;-54
2022/06/04 10:55:10;;;;;;;8.43;7.53;;;27.00;1.00;;;;;;5046992;28;20951;-57
2022/06/04 10:58:14;;;;;;;9.70;8.90;;;27.00;1.00;;;;;;5053396;28;20444;-56
2022/06/04 11:00:46;;;;;;;10.63;9.83;;;27.00;1.00;;;;;;5047622;28;20487;-54
2022/06/04 11:03:32;;;;;;;11.87;11.07;;;27.20;1.00;;;;;;5052272;28;20842;-55
2022/06/04 11:06:05;;;;;;;12.77;11.57;;;26.60;1.00;;;;;;5062031;28;20455;-55
2022/06/04 11:08:36;;;;;;;13.50;12.40;;;26.40;1.00;;;;;;5059948;28;20436;-56
2022/06/04 11:11:08;;;;;;;12.60;11.70;;;26.10;1.00;;;;;;5062426;28;20433;-54
2022/06/04 11:13:43;;;;;;;13.93;13.00;;;25.80;1.00;;;;;;5049430;28;20780;-57
2022/06/04 11:16:33;;;;;;;13.53;12.53;;;25.80;1.00;;;;;;5050500;28;20449;-55
2022/06/04 11:19:16;;;;;;;13.87;12.87;;;26.00;1.00;;;;;;5051462;28;20506;-55
2022/06/04 11:21:56;;;;;;;14.40;13.10;;;26.10;1.00;;;;;;5059388;28;20432;-54
2022/06/04 11:24:35;;;;;;;14.70;13.70;;;26.40;1.00;;;;;;5049210;28;20412;-54
2022/06/04 11:27:15;;;;;;;14.50;13.40;;;26.50;1.00;;;;;;5044937;28;20528;-55
2022/06/04 11:29:41;;;;;;;14.03;12.93;;;26.20;1.00;;;;;;5056711;28;20430;-54
2022/06/04 11:32:29;;;;;;;14.13;12.93;;;26.00;1.00;;;;;;5050116;28;20446;-53
2022/06/04 11:35:25;;;;;;;15.10;13.90;;;26.10;1.00;;;;;;5056612;28;20438;-55
2022/06/04 11:37:53;;;;;;;17.00;15.67;;;25.30;1.00;;;;;;5048088;28;20466;-58
2022/06/04 11:40:32;;;;;;;17.20;15.90;;;25.20;1.00;;;;;;5048148;28;20453;-54
2022/06/04 11:43:11;;;;;;;16.90;15.60;;;24.90;1.00;;;;;;5057822;28;20417;-54
2022/06/04 11:45:44;;;;;;;17.67;16.37;;;25.70;1.00;;;;;;5045999;28;20462;-53
2022/06/04 11:48:52;;;;;;;20.33;18.83;;;25.50;1.00;;;;;;5072572;28;20473;-55
2022/06/04 11:51:54;;;;;;;17.30;16.17;;;25.20;1.00;;;;;;5053905;28;20465;-52
2022/06/04 11:54:41;;;;;;;18.37;16.83;;;25.20;1.00;;;;;;5058601;28;20472;-52
2022/06/04 11:57:34;;;;;;;18.37;17.00;;;25.80;1.00;;;;;;5047634;28;20470;-53
2022/06/04 12:00:18;;;;;;;18.33;17.00;;;26.00;1.00;;;;;;5048758;28;20429;-53
2022/06/04 12:03:04;;;;;;;18.27;16.60;;;26.10;1.00;;;;;;5058127;28;20447;-55
2022/06/04 12:05:42;;;;;;;18.33;17.03;;;;;;;;;;5056678;28;20425;-54
2022/06/04 12:08:12;;;;;;;16.57;15.47;;;26.10;1.00;;;;;;5065008;28;20474;-54
2022/06/04 12:10:57;;;;;;;15.97;14.73;;;26.50;1.00;;;;;;5052218;28;20454;-56
2022/06/04 12:13:42;;;;;;;16.77;15.20;;;26.90;1.00;;;;;;5065036;28;20453;-52
2022/06/04 12:16:16;;;;;;;15.20;14.07;;;26.80;1.00;;;;;;5063230;28;20430;-54
2022/06/04 12:18:59;;;;;;;14.50;13.37;;;27.10;1.00;;;;;;5054659;28;20423;-54
2022/06/04 12:24:33;;;;;;;14.07;12.97;;;26.50;1.00;;;;;;5062053;28;20940;-53
2022/06/04 12:27:22;;;;;;;13.13;12.33;;;26.90;1.00;;;;;;5061480;28;20423;-54
2022/06/04 12:29:56;;;;;;;13.80;12.70;;;27.40;1.00;;;;;;5064468;28;20442;-57
2022/06/04 12:32:35;;;;;;;13.37;12.37;;;27.70;1.00;;;;;;5046598;28;20417;-55
2022/06/04 12:35:11;;;;;;;12.50;11.70;;;27.60;1.00;;;;;;5049349;28;20828;-55
2022/06/04 12:37:40;;;;;;;14.87;13.77;;;27.80;1.00;;;;;;5049352;28;21068;-56
2022/06/04 12:40:22;;;;;;;14.70;13.27;;;27.60;1.00;;;;;;5064163;28;20451;-55
2022/06/04 12:43:28;;;;;;;13.50;12.50;;;27.30;1.00;;;;;;5052082;28;20442;-54
2022/06/04 12:46:28;;;;;;;14.37;13.17;;;27.00;1.00;;;;;;5049074;28;20973;-54
2022/06/04 12:49:03;;;;;;;13.40;12.40;;;26.90;1.00;;;;;;5056046;28;20452;-56
2022/06/04 12:51:45;;;;;;;14.50;13.13;;;26.80;1.00;;;;;;5048271;28;20442;-54
2022/06/04 12:54:41;;;;;;;13.40;12.40;;;26.80;1.00;;;;;;5065457;28;20456;-53
2022/06/04 12:57:28;;;;;;;12.67;11.87;;;26.80;1.00;;;;;;5052668;28;20842;-54
2022/06/04 13:00:08;;;;;;;13.47;12.47;;;26.80;1.00;;;;;;5066344;28;20932;-54
2022/06/04 13:02:36;;;;;;;13.60;12.50;;;26.80;1.00;;;;;;5053788;28;20909;-55
2022/06/04 13:05:14;;;;;;;13.40;12.47;;;26.90;1.00;;;;;;5050637;28;21017;-54
2022/06/04 13:08:11;;;;;;;13.20;12.03;;;26.80;1.00;;;;;;5056839;28;20442;-55
2022/06/04 13:10:56;;;;;;;13.57;12.57;;;26.50;1.00;;;;;;5066557;28;20414;-53
2022/06/04 13:13:47;;;;;;;12.67;11.73;;;26.40;1.00;;;;;;5050212;28;20424;-56
2022/06/04 13:16:24;;;;;;;12.80;11.80;;;26.70;1.00;;;;;;5052218;28;20417;-54
2022/06/04 13:19:08;;;;;;;13.23;12.33;;;26.70;1.00;;;;;;5050858;28;20430;-55
2022/06/04 13:21:37;;;;;;;13.37;12.30;;;26.70;1.00;;;;;;5047301;28;20490;-55
2022/06/04 13:24:09;;;;;;;13.43;12.33;;;26.40;1.00;;;;;;5051767;28;20414;-54
2022/06/04 13:26:42;;;;;;;13.93;12.90;;;26.10;1.00;;;;;;5051492;28;21107;-55
2022/06/04 13:29:19;;;;;;;12.93;11.73;;;26.00;1.00;;;;;;5050001;28;20451;-56
2022/06/04 13:31:51;;;;;;;13.50;12.50;;;26.20;1.00;;;;;;5051123;28;20439;-53
2022/06/04 13:34:23;;;;;;;13.40;12.43;;;26.00;1.00;;;;;;5049192;28;20454;-53
2022/06/04 13:37:00;;;;;;;13.80;12.70;;;26.00;1.00;;;;;;5050236;28;20959;-54